sensor_id;sensor_type;location;lat;lon;timestamp;P1;durP1;ratioP1;P2;durP2;ratioP2
22922;SDS011;11627;51.322;22.816;2023-01-13T00:01:10;26.45;;;13.52;;
22922;SDS011;11627;51.322;22.816;2023-01-13T00:03:37;24.63;;;13.05;;
22922;SDS011;11627;51.322;22.816;2023-01-13T00:06:05;25.75;;;13.25;;
22922;SDS011;11627;51.322;22.816;2023-01-13T00:08:31;25.38;;;12.95;;
22922;SDS011;11627;51.322;22.816;2023-01-13T00:10:58;28.17;;;14.20;;
22922;SDS011;11627;51.322;22.816;2023-01-13T00:13:25;29.58;;;13.93;;
22922;SDS011;11627;51.322;22.816;2023-01-13T00:16:02;25.17;;;13.32;;
22922;SDS011;11627;51.322;22.816;2023-01-13T00:18:31;27.92;;;13.35;;
22922;SDS011;11627;51.322;22.816;2023-01-13T00:21:04;26.73;;;12.85;;
22922;SDS011;11627;51.322;22.816;2023-01-13T00:23:37;29.10;;;13.35;;
22922;SDS011;11627;51.322;22.816;2023-01-13T00:26:07;24.02;;;12.13;;
22922;SDS011;11627;51.322;22.816;2023-01-13T00:28:37;27.23;;;13.13;;
22922;SDS011;11627;51.322;22.816;2023-01-13T00:31:07;25.92;;;12.32;;
22922;SDS011;11627;51.322;22.816;2023-01-13T00:33:34;28.30;;;13.55;;
22922;SDS011;11627;51.322;22.816;2023-01-13T00:36:02;25.85;;;12.80;;
22922;SDS011;11627;51.322;22.816;2023-01-13T00:38:29;26.88;;;12.75;;
22922;SDS011;11627;51.322;22.816;2023-01-13T00:41:00;24.98;;;12.40;;
22922;SDS011;11627;51.322;22.816;2023-01-13T00:43:43;22.70;;;11.95;;
22922;SDS011;11627;51.322;22.816;2023-01-13T00:46:10;25.63;;;12.70;;
22922;SDS011;11627;51.322;22.816;2023-01-13T00:48:38;26.75;;;11.88;;
22922;SDS011;11627;51.322;22.816;2023-01-13T00:51:05;23.52;;;12.02;;
22922;SDS011;11627;51.322;22.816;2023-01-13T00:53:34;23.25;;;12.13;;
22922;SDS011;11627;51.322;22.816;2023-01-13T00:56:06;26.88;;;12.50;;
22922;SDS011;11627;51.322;22.816;2023-01-13T00:58:36;28.15;;;12.52;;
22922;SDS011;11627;51.322;22.816;2023-01-13T01:01:03;26.27;;;11.65;;
22922;SDS011;11627;51.322;22.816;2023-01-13T01:03:31;22.98;;;12.32;;
22922;SDS011;11627;51.322;22.816;2023-01-13T01:06:02;22.85;;;12.02;;
22922;SDS011;11627;51.322;22.816;2023-01-13T01:08:38;24.42;;;12.40;;
22922;SDS011;11627;51.322;22.816;2023-01-13T01:11:08;20.67;;;11.25;;
22922;SDS011;11627;51.322;22.816;2023-01-13T01:13:38;28.05;;;12.13;;
22922;SDS011;11627;51.322;22.816;2023-01-13T01:16:04;25.05;;;12.80;;
22922;SDS011;11627;51.322;22.816;2023-01-13T01:18:39;25.08;;;12.23;;
22922;SDS011;11627;51.322;22.816;2023-01-13T01:21:07;25.42;;;12.10;;
22922;SDS011;11627;51.322;22.816;2023-01-13T01:23:34;22.67;;;11.55;;
22922;SDS011;11627;51.322;22.816;2023-01-13T01:26:01;23.42;;;11.90;;
22922;SDS011;11627;51.322;22.816;2023-01-13T01:28:28;24.02;;;12.18;;
22922;SDS011;11627;51.322;22.816;2023-01-13T01:30:55;22.42;;;11.88;;
22922;SDS011;11627;51.322;22.816;2023-01-13T01:33:22;22.50;;;11.52;;
22922;SDS011;11627;51.322;22.816;2023-01-13T01:35:48;24.95;;;12.88;;
22922;SDS011;11627;51.322;22.816;2023-01-13T01:38:15;24.38;;;12.63;;
22922;SDS011;11627;51.322;22.816;2023-01-13T01:40:40;25.63;;;12.30;;
22922;SDS011;11627;51.322;22.816;2023-01-13T01:43:16;25.65;;;12.50;;
22922;SDS011;11627;51.322;22.816;2023-01-13T01:46:25;24.98;;;11.55;;
22922;SDS011;11627;51.322;22.816;2023-01-13T01:49:19;23.85;;;11.68;;
22922;SDS011;11627;51.322;22.816;2023-01-13T01:51:52;21.70;;;11.52;;
22922;SDS011;11627;51.322;22.816;2023-01-13T01:54:21;22.10;;;11.63;;
22922;SDS011;11627;51.322;22.816;2023-01-13T01:57:00;22.45;;;12.00;;
22922;SDS011;11627;51.322;22.816;2023-01-13T01:59:25;22.10;;;10.70;;
22922;SDS011;11627;51.322;22.816;2023-01-13T02:01:53;23.80;;;11.65;;
22922;SDS011;11627;51.322;22.816;2023-01-13T02:04:22;23.63;;;12.20;;
22922;SDS011;11627;51.322;22.816;2023-01-13T02:06:52;24.40;;;11.77;;
22922;SDS011;11627;51.322;22.816;2023-01-13T02:09:18;23.00;;;11.68;;
22922;SDS011;11627;51.322;22.816;2023-01-13T02:11:43;22.88;;;11.60;;
22922;SDS011;11627;51.322;22.816;2023-01-13T02:14:28;24.88;;;12.38;;
22922;SDS011;11627;51.322;22.816;2023-01-13T02:17:06;22.85;;;11.73;;
22922;SDS011;11627;51.322;22.816;2023-01-13T02:30:58;21.05;;;11.40;;
22922;SDS011;11627;51.322;22.816;2023-01-13T02:34:09;21.92;;;10.38;;
22922;SDS011;11627;51.322;22.816;2023-01-13T02:39:33;22.08;;;11.50;;
22922;SDS011;11627;51.322;22.816;2023-01-13T02:42:11;24.63;;;11.50;;
22922;SDS011;11627;51.322;22.816;2023-01-13T02:45:15;22.08;;;11.13;;
22922;SDS011;11627;51.322;22.816;2023-01-13T02:47:47;24.35;;;12.00;;
22922;SDS011;11627;51.322;22.816;2023-01-13T02:50:16;22.35;;;11.45;;
22922;SDS011;11627;51.322;22.816;2023-01-13T02:52:59;21.48;;;10.95;;
22922;SDS011;11627;51.322;22.816;2023-01-13T02:55:37;23.60;;;11.27;;
22922;SDS011;11627;51.322;22.816;2023-01-13T02:58:11;22.48;;;11.45;;
22922;SDS011;11627;51.322;22.816;2023-01-13T03:00:42;22.15;;;10.95;;
22922;SDS011;11627;51.322;22.816;2023-01-13T03:03:09;24.60;;;11.25;;
22922;SDS011;11627;51.322;22.816;2023-01-13T03:05:35;23.05;;;11.20;;
22922;SDS011;11627;51.322;22.816;2023-01-13T03:08:10;22.20;;;11.02;;
22922;SDS011;11627;51.322;22.816;2023-01-13T03:11:08;19.83;;;10.32;;
22922;SDS011;11627;51.322;22.816;2023-01-13T03:13:58;22.63;;;11.10;;
22922;SDS011;11627;51.322;22.816;2023-01-13T03:22:16;20.38;;;10.55;;
22922;SDS011;11627;51.322;22.816;2023-01-13T03:25:10;20.70;;;10.73;;
22922;SDS011;11627;51.322;22.816;2023-01-13T03:27:52;18.42;;;9.95;;
22922;SDS011;11627;51.322;22.816;2023-01-13T03:30:28;19.63;;;10.45;;
22922;SDS011;11627;51.322;22.816;2023-01-13T03:35:49;22.02;;;10.75;;
22922;SDS011;11627;51.322;22.816;2023-01-13T03:38:36;17.88;;;10.10;;
22922;SDS011;11627;51.322;22.816;2023-01-13T03:41:52;20.33;;;10.52;;
22922;SDS011;11627;51.322;22.816;2023-01-13T03:44:06;21.83;;;11.20;;
22922;SDS011;11627;51.322;22.816;2023-01-13T03:49:57;22.88;;;10.52;;
22922;SDS011;11627;51.322;22.816;2023-01-13T03:53:04;18.08;;;10.13;;
22922;SDS011;11627;51.322;22.816;2023-01-13T03:55:36;25.27;;;11.13;;
22922;SDS011;11627;51.322;22.816;2023-01-13T03:58:06;25.95;;;10.85;;
22922;SDS011;11627;51.322;22.816;2023-01-13T04:00:58;27.27;;;11.80;;
22922;SDS011;11627;51.322;22.816;2023-01-13T04:03:40;25.60;;;12.10;;
22922;SDS011;11627;51.322;22.816;2023-01-13T04:08:50;27.15;;;12.55;;
22922;SDS011;11627;51.322;22.816;2023-01-13T04:11:25;23.67;;;11.63;;
22922;SDS011;11627;51.322;22.816;2023-01-13T04:14:00;21.17;;;10.95;;
22922;SDS011;11627;51.322;22.816;2023-01-13T04:16:28;21.13;;;11.07;;
22922;SDS011;11627;51.322;22.816;2023-01-13T04:18:54;23.10;;;10.90;;
22922;SDS011;11627;51.322;22.816;2023-01-13T04:21:19;18.83;;;10.13;;
22922;SDS011;11627;51.322;22.816;2023-01-13T04:23:45;19.77;;;9.63;;
22922;SDS011;11627;51.322;22.816;2023-01-13T04:26:15;18.23;;;9.65;;
22922;SDS011;11627;51.322;22.816;2023-01-13T04:28:41;19.63;;;10.02;;
22922;SDS011;11627;51.322;22.816;2023-01-13T04:31:07;18.10;;;9.45;;
22922;SDS011;11627;51.322;22.816;2023-01-13T04:33:34;20.27;;;9.68;;
22922;SDS011;11627;51.322;22.816;2023-01-13T04:35:59;18.05;;;9.75;;
22922;SDS011;11627;51.322;22.816;2023-01-13T04:38:25;18.40;;;9.77;;
22922;SDS011;11627;51.322;22.816;2023-01-13T04:40:51;18.58;;;9.15;;
22922;SDS011;11627;51.322;22.816;2023-01-13T04:43:18;18.02;;;10.02;;
22922;SDS011;11627;51.322;22.816;2023-01-13T04:45:44;20.17;;;11.13;;
22922;SDS011;11627;51.322;22.816;2023-01-13T04:48:11;17.85;;;9.77;;
22922;SDS011;11627;51.322;22.816;2023-01-13T04:50:37;20.90;;;10.70;;
22922;SDS011;11627;51.322;22.816;2023-01-13T04:53:03;17.63;;;9.65;;
22922;SDS011;11627;51.322;22.816;2023-01-13T04:55:30;18.23;;;9.90;;
22922;SDS011;11627;51.322;22.816;2023-01-13T04:58:00;17.83;;;9.05;;
22922;SDS011;11627;51.322;22.816;2023-01-13T05:00:28;16.90;;;8.98;;
22922;SDS011;11627;51.322;22.816;2023-01-13T05:02:54;18.27;;;9.45;;
22922;SDS011;11627;51.322;22.816;2023-01-13T05:05:21;19.83;;;9.43;;
22922;SDS011;11627;51.322;22.816;2023-01-13T05:07:46;17.88;;;9.13;;
22922;SDS011;11627;51.322;22.816;2023-01-13T05:10:12;16.15;;;8.65;;
22922;SDS011;11627;51.322;22.816;2023-01-13T05:12:38;15.35;;;8.52;;
22922;SDS011;11627;51.322;22.816;2023-01-13T05:15:22;17.48;;;8.80;;
22922;SDS011;11627;51.322;22.816;2023-01-13T05:18:06;17.30;;;9.10;;
22922;SDS011;11627;51.322;22.816;2023-01-13T05:20:32;16.52;;;8.95;;
22922;SDS011;11627;51.322;22.816;2023-01-13T05:22:58;19.65;;;9.02;;
22922;SDS011;11627;51.322;22.816;2023-01-13T05:25:42;17.10;;;8.57;;
22922;SDS011;11627;51.322;22.816;2023-01-13T05:28:08;13.90;;;8.25;;
22922;SDS011;11627;51.322;22.816;2023-01-13T05:30:40;16.73;;;8.80;;
22922;SDS011;11627;51.322;22.816;2023-01-13T05:33:11;14.75;;;7.97;;
22922;SDS011;11627;51.322;22.816;2023-01-13T05:35:42;17.20;;;8.15;;
22922;SDS011;11627;51.322;22.816;2023-01-13T05:38:10;15.43;;;8.23;;
22922;SDS011;11627;51.322;22.816;2023-01-13T05:40:38;18.48;;;8.98;;
22922;SDS011;11627;51.322;22.816;2023-01-13T05:43:22;12.20;;;7.50;;
22922;SDS011;11627;51.322;22.816;2023-01-13T05:51:00;12.90;;;7.60;;
22922;SDS011;11627;51.322;22.816;2023-01-13T05:53:28;14.30;;;7.68;;
22922;SDS011;11627;51.322;22.816;2023-01-13T05:55:56;13.93;;;7.63;;
22922;SDS011;11627;51.322;22.816;2023-01-13T05:58:22;14.23;;;7.47;;
22922;SDS011;11627;51.322;22.816;2023-01-13T06:00:49;15.40;;;7.85;;
22922;SDS011;11627;51.322;22.816;2023-01-13T06:03:16;11.75;;;7.30;;
22922;SDS011;11627;51.322;22.816;2023-01-13T06:05:44;13.57;;;7.13;;
22922;SDS011;11627;51.322;22.816;2023-01-13T06:08:11;14.30;;;7.85;;
22922;SDS011;11627;51.322;22.816;2023-01-13T06:10:36;15.75;;;8.05;;
22922;SDS011;11627;51.322;22.816;2023-01-13T06:13:02;13.45;;;7.50;;
22922;SDS011;11627;51.322;22.816;2023-01-13T06:15:30;13.57;;;7.70;;
22922;SDS011;11627;51.322;22.816;2023-01-13T06:17:55;14.45;;;8.20;;
22922;SDS011;11627;51.322;22.816;2023-01-13T06:20:21;15.48;;;7.72;;
22922;SDS011;11627;51.322;22.816;2023-01-13T06:22:48;18.10;;;7.55;;
22922;SDS011;11627;51.322;22.816;2023-01-13T06:27:45;13.05;;;7.05;;
22922;SDS011;11627;51.322;22.816;2023-01-13T06:30:11;13.05;;;7.25;;
22922;SDS011;11627;51.322;22.816;2023-01-13T06:32:38;12.77;;;6.72;;
22922;SDS011;11627;51.322;22.816;2023-01-13T06:35:09;12.85;;;7.55;;
22922;SDS011;11627;51.322;22.816;2023-01-13T06:37:38;15.50;;;7.57;;
22922;SDS011;11627;51.322;22.816;2023-01-13T06:40:06;13.27;;;6.85;;
22922;SDS011;11627;51.322;22.816;2023-01-13T06:42:35;12.88;;;6.57;;
22922;SDS011;11627;51.322;22.816;2023-01-13T06:45:20;11.30;;;6.70;;
22922;SDS011;11627;51.322;22.816;2023-01-13T06:47:48;13.00;;;7.38;;
22922;SDS011;11627;51.322;22.816;2023-01-13T06:50:19;11.60;;;6.40;;
22922;SDS011;11627;51.322;22.816;2023-01-13T06:52:44;12.95;;;6.80;;
22922;SDS011;11627;51.322;22.816;2023-01-13T06:55:10;12.32;;;6.40;;
22922;SDS011;11627;51.322;22.816;2023-01-13T06:57:46;11.38;;;6.07;;
22922;SDS011;11627;51.322;22.816;2023-01-13T07:00:18;11.25;;;6.22;;
22922;SDS011;11627;51.322;22.816;2023-01-13T07:02:45;9.13;;;5.88;;
22922;SDS011;11627;51.322;22.816;2023-01-13T07:05:12;11.82;;;6.03;;
22922;SDS011;11627;51.322;22.816;2023-01-13T07:07:38;14.95;;;6.47;;
22922;SDS011;11627;51.322;22.816;2023-01-13T07:10:06;9.77;;;5.82;;
22922;SDS011;11627;51.322;22.816;2023-01-13T07:12:36;9.43;;;5.75;;
22922;SDS011;11627;51.322;22.816;2023-01-13T07:15:20;14.32;;;6.20;;
22922;SDS011;11627;51.322;22.816;2023-01-13T07:17:46;11.65;;;6.28;;
22922;SDS011;11627;51.322;22.816;2023-01-13T07:20:11;11.35;;;5.47;;
22922;SDS011;11627;51.322;22.816;2023-01-13T07:22:37;11.30;;;5.72;;
22922;SDS011;11627;51.322;22.816;2023-01-13T07:25:04;10.57;;;5.82;;
22922;SDS011;11627;51.322;22.816;2023-01-13T07:27:30;9.10;;;5.78;;
22922;SDS011;11627;51.322;22.816;2023-01-13T07:29:57;11.27;;;6.50;;
22922;SDS011;11627;51.322;22.816;2023-01-13T07:32:22;12.02;;;6.53;;
22922;SDS011;11627;51.322;22.816;2023-01-13T07:34:48;10.68;;;6.25;;
22922;SDS011;11627;51.322;22.816;2023-01-13T07:37:14;10.68;;;6.00;;
22922;SDS011;11627;51.322;22.816;2023-01-13T07:39:39;11.65;;;6.53;;
22922;SDS011;11627;51.322;22.816;2023-01-13T07:42:07;12.75;;;6.38;;
22922;SDS011;11627;51.322;22.816;2023-01-13T07:44:52;14.35;;;6.28;;
22922;SDS011;11627;51.322;22.816;2023-01-13T07:47:17;11.90;;;5.97;;
22922;SDS011;11627;51.322;22.816;2023-01-13T07:49:47;15.35;;;7.28;;
22922;SDS011;11627;51.322;22.816;2023-01-13T07:52:14;11.70;;;6.13;;
22922;SDS011;11627;51.322;22.816;2023-01-13T07:54:41;12.50;;;6.63;;
22922;SDS011;11627;51.322;22.816;2023-01-13T07:57:07;12.05;;;6.00;;
22922;SDS011;11627;51.322;22.816;2023-01-13T07:59:34;13.95;;;6.38;;
22922;SDS011;11627;51.322;22.816;2023-01-13T08:01:59;10.30;;;6.20;;
22922;SDS011;11627;51.322;22.816;2023-01-13T08:04:25;12.13;;;6.03;;
22922;SDS011;11627;51.322;22.816;2023-01-13T08:06:51;10.60;;;6.20;;
22922;SDS011;11627;51.322;22.816;2023-01-13T08:09:16;9.88;;;5.82;;
22922;SDS011;11627;51.322;22.816;2023-01-13T08:11:42;11.38;;;6.30;;
22922;SDS011;11627;51.322;22.816;2023-01-13T08:14:07;14.20;;;7.78;;
22922;SDS011;11627;51.322;22.816;2023-01-13T08:16:34;11.77;;;6.68;;
22922;SDS011;11627;51.322;22.816;2023-01-13T08:19:00;11.82;;;6.88;;
22922;SDS011;11627;51.322;22.816;2023-01-13T08:21:27;19.00;;;8.65;;
22922;SDS011;11627;51.322;22.816;2023-01-13T08:23:54;14.70;;;7.30;;
22922;SDS011;11627;51.322;22.816;2023-01-13T08:26:19;11.15;;;6.50;;
22922;SDS011;11627;51.322;22.816;2023-01-13T08:28:46;11.68;;;6.35;;
22922;SDS011;11627;51.322;22.816;2023-01-13T08:31:14;9.50;;;5.63;;
22922;SDS011;11627;51.322;22.816;2023-01-13T08:33:40;11.73;;;5.88;;
22922;SDS011;11627;51.322;22.816;2023-01-13T08:36:07;10.55;;;5.75;;
22922;SDS011;11627;51.322;22.816;2023-01-13T08:38:34;11.90;;;5.88;;
22922;SDS011;11627;51.322;22.816;2023-01-13T08:41:00;11.15;;;6.00;;
22922;SDS011;11627;51.322;22.816;2023-01-13T08:43:33;11.82;;;5.93;;
22922;SDS011;11627;51.322;22.816;2023-01-13T08:46:00;10.13;;;5.43;;
22922;SDS011;11627;51.322;22.816;2023-01-13T08:48:28;10.57;;;5.97;;
22922;SDS011;11627;51.322;22.816;2023-01-13T08:51:00;9.27;;;5.28;;
22922;SDS011;11627;51.322;22.816;2023-01-13T08:53:27;11.88;;;6.07;;
22922;SDS011;11627;51.322;22.816;2023-01-13T08:55:54;11.27;;;5.40;;
22922;SDS011;11627;51.322;22.816;2023-01-13T08:58:21;12.82;;;6.32;;
22922;SDS011;11627;51.322;22.816;2023-01-13T09:00:47;12.20;;;6.38;;
22922;SDS011;11627;51.322;22.816;2023-01-13T09:03:12;11.20;;;6.15;;
22922;SDS011;11627;51.322;22.816;2023-01-13T09:05:38;10.35;;;5.60;;
22922;SDS011;11627;51.322;22.816;2023-01-13T09:08:04;12.68;;;5.57;;
22922;SDS011;11627;51.322;22.816;2023-01-13T09:10:31;10.48;;;5.70;;
22922;SDS011;11627;51.322;22.816;2023-01-13T09:12:57;9.90;;;5.85;;
22922;SDS011;11627;51.322;22.816;2023-01-13T09:15:42;10.77;;;5.40;;
22922;SDS011;11627;51.322;22.816;2023-01-13T09:18:11;8.40;;;5.45;;
22922;SDS011;11627;51.322;22.816;2023-01-13T09:20:37;8.85;;;5.38;;
22922;SDS011;11627;51.322;22.816;2023-01-13T09:23:03;12.40;;;5.70;;
22922;SDS011;11627;51.322;22.816;2023-01-13T09:25:29;11.68;;;5.60;;
22922;SDS011;11627;51.322;22.816;2023-01-13T09:27:56;11.32;;;6.35;;
22922;SDS011;11627;51.322;22.816;2023-01-13T09:30:21;10.07;;;6.18;;
22922;SDS011;11627;51.322;22.816;2023-01-13T09:32:47;9.40;;;5.38;;
22922;SDS011;11627;51.322;22.816;2023-01-13T09:35:13;11.43;;;6.07;;
22922;SDS011;11627;51.322;22.816;2023-01-13T09:37:41;11.07;;;5.97;;
22922;SDS011;11627;51.322;22.816;2023-01-13T09:40:10;10.98;;;6.00;;
22922;SDS011;11627;51.322;22.816;2023-01-13T09:45:38;11.02;;;6.00;;
22922;SDS011;11627;51.322;22.816;2023-01-13T09:53:36;12.00;;;6.15;;
22922;SDS011;11627;51.322;22.816;2023-01-13T09:56:04;11.63;;;6.47;;
22922;SDS011;11627;51.322;22.816;2023-01-13T09:58:32;12.70;;;7.00;;
22922;SDS011;11627;51.322;22.816;2023-01-13T10:03:42;13.23;;;7.40;;
22922;SDS011;11627;51.322;22.816;2023-01-13T10:09:00;16.98;;;8.70;;
22922;SDS011;11627;51.322;22.816;2023-01-13T10:11:28;16.65;;;7.68;;
22922;SDS011;11627;51.322;22.816;2023-01-13T10:14:23;17.50;;;9.07;;
22922;SDS011;11627;51.322;22.816;2023-01-13T10:20:00;18.42;;;9.30;;
22922;SDS011;11627;51.322;22.816;2023-01-13T10:22:52;19.65;;;10.63;;
22922;SDS011;11627;51.322;22.816;2023-01-13T10:25:54;15.30;;;8.95;;
22922;SDS011;11627;51.322;22.816;2023-01-13T10:28:22;19.73;;;10.23;;
22922;SDS011;11627;51.322;22.816;2023-01-13T10:30:49;15.65;;;8.90;;
22922;SDS011;11627;51.322;22.816;2023-01-13T10:33:16;16.38;;;8.95;;
22922;SDS011;11627;51.322;22.816;2023-01-13T10:36:11;20.02;;;9.00;;
22922;SDS011;11627;51.322;22.816;2023-01-13T10:38:43;13.57;;;7.90;;
22922;SDS011;11627;51.322;22.816;2023-01-13T10:43:39;16.23;;;7.70;;
22922;SDS011;11627;51.322;22.816;2023-01-13T10:46:11;16.52;;;8.10;;
22922;SDS011;11627;51.322;22.816;2023-01-13T10:48:41;13.38;;;7.50;;
22922;SDS011;11627;51.322;22.816;2023-01-13T10:56:31;14.38;;;7.20;;
22922;SDS011;11627;51.322;22.816;2023-01-13T10:59:11;13.10;;;7.18;;
22922;SDS011;11627;51.322;22.816;2023-01-13T11:18:32;11.15;;;6.10;;
22922;SDS011;11627;51.322;22.816;2023-01-13T11:27:21;12.50;;;6.43;;
22922;SDS011;11627;51.322;22.816;2023-01-13T11:32:36;13.43;;;6.70;;
22922;SDS011;11627;51.322;22.816;2023-01-13T11:35:17;11.18;;;6.38;;
22922;SDS011;11627;51.322;22.816;2023-01-13T11:37:48;12.48;;;6.15;;
22922;SDS011;11627;51.322;22.816;2023-01-13T11:46:10;11.07;;;6.35;;
22922;SDS011;11627;51.322;22.816;2023-01-13T11:48:39;13.48;;;6.75;;
22922;SDS011;11627;51.322;22.816;2023-01-13T11:59:26;13.23;;;6.85;;
22922;SDS011;11627;51.322;22.816;2023-01-13T12:08:02;12.05;;;6.45;;
22922;SDS011;11627;51.322;22.816;2023-01-13T12:10:15;13.82;;;6.53;;
22922;SDS011;11627;51.322;22.816;2023-01-13T12:15:50;12.02;;;6.25;;
22922;SDS011;11627;51.322;22.816;2023-01-13T12:21:12;15.00;;;7.32;;
22922;SDS011;11627;51.322;22.816;2023-01-13T12:26:41;15.43;;;7.25;;
22922;SDS011;11627;51.322;22.816;2023-01-13T12:29:17;12.68;;;7.28;;
22922;SDS011;11627;51.322;22.816;2023-01-13T12:31:50;11.05;;;6.32;;
22922;SDS011;11627;51.322;22.816;2023-01-13T12:40:04;12.77;;;7.60;;
22922;SDS011;11627;51.322;22.816;2023-01-13T12:42:57;14.77;;;7.95;;
22922;SDS011;11627;51.322;22.816;2023-01-13T12:45:49;13.90;;;7.38;;
22922;SDS011;11627;51.322;22.816;2023-01-13T12:51:20;14.45;;;7.68;;
22922;SDS011;11627;51.322;22.816;2023-01-13T12:53:57;14.18;;;8.05;;
22922;SDS011;11627;51.322;22.816;2023-01-13T13:01:41;15.88;;;8.27;;
22922;SDS011;11627;51.322;22.816;2023-01-13T13:04:50;15.68;;;8.10;;
22922;SDS011;11627;51.322;22.816;2023-01-13T13:07:08;25.85;;;10.77;;
22922;SDS011;11627;51.322;22.816;2023-01-13T13:10:00;25.33;;;10.65;;
22922;SDS011;11627;51.322;22.816;2023-01-13T13:15:32;20.85;;;9.68;;
22922;SDS011;11627;51.322;22.816;2023-01-13T13:21:06;24.02;;;10.57;;
22922;SDS011;11627;51.322;22.816;2023-01-13T13:28:52;17.80;;;9.00;;
22922;SDS011;11627;51.322;22.816;2023-01-13T13:34:00;15.98;;;7.65;;
22922;SDS011;11627;51.322;22.816;2023-01-13T13:39:25;12.90;;;7.55;;
22922;SDS011;11627;51.322;22.816;2023-01-13T13:42:12;13.93;;;7.45;;
22922;SDS011;11627;51.322;22.816;2023-01-13T13:45:10;16.38;;;7.93;;
22922;SDS011;11627;51.322;22.816;2023-01-13T13:48:16;13.32;;;7.93;;
22922;SDS011;11627;51.322;22.816;2023-01-13T13:50:57;14.93;;;8.43;;
22922;SDS011;11627;51.322;22.816;2023-01-13T13:53:31;14.75;;;7.45;;
22922;SDS011;11627;51.322;22.816;2023-01-13T13:56:00;15.95;;;7.85;;
22922;SDS011;11627;51.322;22.816;2023-01-13T13:58:29;12.02;;;7.15;;
22922;SDS011;11627;51.322;22.816;2023-01-13T14:00:57;17.08;;;7.82;;
22922;SDS011;11627;51.322;22.816;2023-01-13T14:03:30;15.75;;;7.97;;
22922;SDS011;11627;51.322;22.816;2023-01-13T14:06:04;15.15;;;8.40;;
22922;SDS011;11627;51.322;22.816;2023-01-13T14:08:34;14.98;;;8.02;;
22922;SDS011;11627;51.322;22.816;2023-01-13T14:11:09;14.98;;;8.95;;
22922;SDS011;11627;51.322;22.816;2023-01-13T14:14:14;14.15;;;7.68;;
22922;SDS011;11627;51.322;22.816;2023-01-13T14:16:41;13.00;;;7.20;;
22922;SDS011;11627;51.322;22.816;2023-01-13T14:21:58;14.20;;;7.72;;
22922;SDS011;11627;51.322;22.816;2023-01-13T14:24:26;15.77;;;7.88;;
22922;SDS011;11627;51.322;22.816;2023-01-13T14:27:05;18.00;;;8.73;;
22922;SDS011;11627;51.322;22.816;2023-01-13T14:29:38;20.17;;;9.25;;
22922;SDS011;11627;51.322;22.816;2023-01-13T14:32:05;16.17;;;7.65;;
22922;SDS011;11627;51.322;22.816;2023-01-13T14:34:33;16.02;;;8.45;;
22922;SDS011;11627;51.322;22.816;2023-01-13T14:37:00;16.50;;;9.05;;
22922;SDS011;11627;51.322;22.816;2023-01-13T14:42:09;17.50;;;9.80;;
22922;SDS011;11627;51.322;22.816;2023-01-13T14:44:36;21.73;;;10.60;;
22922;SDS011;11627;51.322;22.816;2023-01-13T14:47:30;18.45;;;9.98;;
22922;SDS011;11627;51.322;22.816;2023-01-13T14:52:35;28.77;;;13.07;;
22922;SDS011;11627;51.322;22.816;2023-01-13T14:55:21;24.90;;;12.60;;
22922;SDS011;11627;51.322;22.816;2023-01-13T14:58:12;20.25;;;9.02;;
22922;SDS011;11627;51.322;22.816;2023-01-13T15:00:48;15.95;;;8.38;;
22922;SDS011;11627;51.322;22.816;2023-01-13T15:03:16;18.55;;;8.88;;
22922;SDS011;11627;51.322;22.816;2023-01-13T15:05:44;18.00;;;9.13;;
22922;SDS011;11627;51.322;22.816;2023-01-13T15:16:21;17.30;;;10.07;;
22922;SDS011;11627;51.322;22.816;2023-01-13T15:18:47;17.80;;;8.73;;
22922;SDS011;11627;51.322;22.816;2023-01-13T15:21:12;17.42;;;8.30;;
22922;SDS011;11627;51.322;22.816;2023-01-13T15:23:41;17.33;;;8.52;;
22922;SDS011;11627;51.322;22.816;2023-01-13T15:28:44;20.15;;;9.05;;
22922;SDS011;11627;51.322;22.816;2023-01-13T15:31:10;18.08;;;9.10;;
22922;SDS011;11627;51.322;22.816;2023-01-13T15:33:37;18.05;;;9.60;;
22922;SDS011;11627;51.322;22.816;2023-01-13T15:36:05;14.43;;;8.02;;
22922;SDS011;11627;51.322;22.816;2023-01-13T15:38:41;17.27;;;9.18;;
22922;SDS011;11627;51.322;22.816;2023-01-13T15:41:07;14.95;;;7.85;;
22922;SDS011;11627;51.322;22.816;2023-01-13T15:43:33;14.50;;;7.75;;
22922;SDS011;11627;51.322;22.816;2023-01-13T15:46:18;18.88;;;9.00;;
22922;SDS011;11627;51.322;22.816;2023-01-13T15:49:26;18.17;;;8.88;;
22922;SDS011;11627;51.322;22.816;2023-01-13T15:52:02;17.08;;;8.70;;
22922;SDS011;11627;51.322;22.816;2023-01-13T15:54:42;16.58;;;9.60;;
22922;SDS011;11627;51.322;22.816;2023-01-13T15:57:18;21.20;;;10.32;;
22922;SDS011;11627;51.322;22.816;2023-01-13T15:59:52;23.20;;;9.55;;
22922;SDS011;11627;51.322;22.816;2023-01-13T16:02:20;17.30;;;9.35;;
22922;SDS011;11627;51.322;22.816;2023-01-13T16:04:48;18.63;;;9.07;;
22922;SDS011;11627;51.322;22.816;2023-01-13T16:07:16;19.13;;;9.20;;
22922;SDS011;11627;51.322;22.816;2023-01-13T16:09:42;17.00;;;8.80;;
22922;SDS011;11627;51.322;22.816;2023-01-13T16:12:10;20.10;;;9.13;;
22922;SDS011;11627;51.322;22.816;2023-01-13T16:14:37;20.10;;;9.45;;
22922;SDS011;11627;51.322;22.816;2023-01-13T16:17:05;17.88;;;8.23;;
22922;SDS011;11627;51.322;22.816;2023-01-13T16:19:41;19.92;;;9.50;;
22922;SDS011;11627;51.322;22.816;2023-01-13T16:22:07;16.63;;;8.98;;
22922;SDS011;11627;51.322;22.816;2023-01-13T16:24:34;16.65;;;8.52;;
22922;SDS011;11627;51.322;22.816;2023-01-13T16:27:00;17.17;;;8.70;;
22922;SDS011;11627;51.322;22.816;2023-01-13T16:29:34;15.55;;;8.43;;
22922;SDS011;11627;51.322;22.816;2023-01-13T16:32:00;18.95;;;9.45;;
22922;SDS011;11627;51.322;22.816;2023-01-13T16:34:25;16.23;;;8.73;;
22922;SDS011;11627;51.322;22.816;2023-01-13T16:36:52;17.83;;;8.95;;
22922;SDS011;11627;51.322;22.816;2023-01-13T16:39:19;17.33;;;8.77;;
22922;SDS011;11627;51.322;22.816;2023-01-13T16:41:47;17.63;;;9.05;;
22922;SDS011;11627;51.322;22.816;2023-01-13T16:44:13;18.13;;;9.43;;
22922;SDS011;11627;51.322;22.816;2023-01-13T16:46:40;20.63;;;9.13;;
22922;SDS011;11627;51.322;22.816;2023-01-13T16:49:11;19.65;;;8.82;;
22922;SDS011;11627;51.322;22.816;2023-01-13T16:51:38;17.48;;;8.85;;
22922;SDS011;11627;51.322;22.816;2023-01-13T16:54:06;18.15;;;9.02;;
22922;SDS011;11627;51.322;22.816;2023-01-13T16:56:33;17.17;;;9.15;;
22922;SDS011;11627;51.322;22.816;2023-01-13T16:59:04;21.48;;;9.95;;
22922;SDS011;11627;51.322;22.816;2023-01-13T17:01:32;21.92;;;10.13;;
22922;SDS011;11627;51.322;22.816;2023-01-13T17:03:59;20.17;;;9.10;;
22922;SDS011;11627;51.322;22.816;2023-01-13T17:09:05;20.00;;;9.13;;
22922;SDS011;11627;51.322;22.816;2023-01-13T17:11:34;18.13;;;9.65;;
22922;SDS011;11627;51.322;22.816;2023-01-13T17:13:59;26.80;;;11.25;;
22922;SDS011;11627;51.322;22.816;2023-01-13T17:16:25;18.77;;;9.45;;
22922;SDS011;11627;51.322;22.816;2023-01-13T17:18:53;29.40;;;10.68;;
22922;SDS011;11627;51.322;22.816;2023-01-13T17:21:19;17.63;;;8.80;;
22922;SDS011;11627;51.322;22.816;2023-01-13T17:23:46;18.65;;;9.65;;
22922;SDS011;11627;51.322;22.816;2023-01-13T17:26:23;18.33;;;9.70;;
22922;SDS011;11627;51.322;22.816;2023-01-13T17:28:56;20.63;;;9.45;;
22922;SDS011;11627;51.322;22.816;2023-01-13T17:31:23;15.38;;;8.45;;